Time;durP1;ratioP1;P1;durP2;ratioP2;P2;SDS_P1;SDS_P2;PMS_P1;PMS_P2;Temp;Humidity;BMP_temperature;BMP_pressure;BME280_temperature;BME280_humidity;BME280_pressure;Samples;Min_cycle;Max_cycle;Signal;HPM_P1;HPM_P2
2022/05/20 00:01:47;;;;;;;11.73;7.07;;;20.20;88.90;;;;;;5053482;28;20420;-76
2022/05/20 00:04:13;;;;;;;9.70;6.80;;;20.20;88.90;;;;;;5053809;28;20710;-76
2022/05/20 00:06:39;;;;;;;9.60;6.33;;;20.20;88.90;;;;;;5053831;28;20424;-75
2022/05/20 00:09:05;;;;;;;14.43;7.53;;;20.20;88.90;;;;;;5049429;28;20640;-76
2022/05/20 00:11:31;;;;;;;15.53;6.43;;;20.10;89.00;;;;;;5053521;28;20479;-77
2022/05/20 00:13:57;;;;;;;12.87;6.83;;;20.00;89.30;;;;;;5051332;28;20275;-76
2022/05/20 00:16:23;;;;;;;11.50;7.10;;;20.10;89.00;;;;;;5055437;28;20558;-75
2022/05/20 00:18:49;;;;;;;11.40;6.83;;;20.00;89.20;;;;;;5053423;28;20439;-78
2022/05/20 00:21:15;;;;;;;12.23;7.40;;;19.90;88.70;;;;;;5052464;28;20432;-77
2022/05/20 00:23:40;;;;;;;10.97;7.20;;;19.90;88.90;;;;;;5054076;28;20212;-76
2022/05/20 00:26:06;;;;;;;11.43;7.87;;;19.90;88.60;;;;;;5052758;28;20192;-76
2022/05/20 00:28:32;;;;;;;10.50;6.03;;;20.00;88.60;;;;;;5054230;28;20190;-75
2022/05/20 00:31:05;;;;;;;10.30;6.17;;;20.00;89.20;;;;;;5052306;28;20209;-76
2022/05/20 00:33:33;;;;;;;10.77;6.80;;;20.00;89.30;;;;;;5045763;28;20208;-78
2022/05/20 00:35:59;;;;;;;8.73;6.40;;;20.00;89.30;;;;;;5055672;28;20511;-76
2022/05/20 00:38:26;;;;;;;10.90;6.70;;;19.90;89.30;;;;;;5053891;28;20457;-77
2022/05/20 00:40:55;;;;;;;9.50;6.70;;;19.90;88.40;;;;;;5056216;28;20205;-76
2022/05/20 00:43:29;;;;;;;13.53;6.97;;;19.80;88.00;;;;;;5053114;28;20529;-77
2022/05/20 00:46:02;;;;;;;14.33;7.80;;;19.90;88.40;;;;;;5050695;28;20934;-76
2022/05/20 00:48:29;;;;;;;13.63;7.10;;;19.90;88.40;;;;;;5046867;28;20527;-76
2022/05/20 00:51:21;;;;;;;11.30;7.30;;;20.00;88.10;;;;;;5056081;28;20471;-77
2022/05/20 00:53:56;;;;;;;16.10;7.10;;;19.90;87.30;;;;;;5047389;28;20491;-76
2022/05/20 00:56:28;;;;;;;11.30;6.80;;;19.80;88.70;;;;;;5053684;28;20422;-75
2022/05/20 00:58:55;;;;;;;10.00;7.20;;;19.80;88.40;;;;;;5055958;28;20424;-75
2022/05/20 01:01:21;;;;;;;10.20;6.40;;;19.90;88.70;;;;;;5053830;28;20429;-78
2022/05/20 01:03:48;;;;;;;11.97;7.00;;;19.80;88.30;;;;;;5051355;28;20467;-77
2022/05/20 01:06:13;;;;;;;11.00;7.37;;;19.70;88.40;;;;;;5049993;28;20458;-77
2022/05/20 01:08:40;;;;;;;18.53;7.30;;;19.60;88.30;;;;;;5051394;28;20518;-77
2022/05/20 01:11:06;;;;;;;12.00;7.23;;;19.60;88.40;;;;;;5053158;28;20197;-76
2022/05/20 01:13:33;;;;;;;9.30;5.90;;;19.60;88.70;;;;;;5049044;28;20543;-77
2022/05/20 01:16:02;;;;;;;9.33;6.07;;;19.70;89.20;;;;;;5045254;28;20224;-76
2022/05/20 01:18:33;;;;;;;21.03;7.90;;;19.70;89.50;;;;;;5047346;28;20477;-77
2022/05/20 01:20:59;;;;;;;9.67;6.70;;;19.60;89.60;;;;;;5053043;28;20407;-76
2022/05/20 01:23:28;;;;;;;16.20;7.83;;;19.70;89.60;;;;;;5049656;28;20882;-76
2022/05/20 01:25:56;;;;;;;10.77;7.23;;;19.60;89.50;;;;;;5052507;28;20424;-75
2022/05/20 01:28:25;;;;;;;14.30;7.70;;;19.60;89.30;;;;;;5051599;28;20419;-76
2022/05/20 01:30:58;;;;;;;11.17;6.70;;;19.50;89.30;;;;;;5050727;28;20489;-76
2022/05/20 01:33:33;;;;;;;13.67;7.33;;;19.50;89.70;;;;;;5051056;28;20458;-76
2022/05/20 01:36:01;;;;;;;15.47;7.63;;;19.50;89.70;;;;;;5053008;28;20415;-77
2022/05/20 01:38:27;;;;;;;12.87;7.57;;;19.50;89.90;;;;;;5052016;28;20422;-76
2022/05/20 01:41:09;;;;;;;12.70;7.77;;;19.40;89.50;;;;;;5047946;28;20424;-77
2022/05/20 01:43:53;;;;;;;10.80;6.97;;;19.30;89.20;;;;;;5047953;28;20204;-76
2022/05/20 01:46:32;;;;;;;10.43;6.70;;;19.30;89.30;;;;;;5050721;28;20415;-78
2022/05/20 01:49:23;;;;;;;13.67;6.97;;;19.30;89.60;;;;;;5054275;28;20423;-77
2022/05/20 01:52:06;;;;;;;13.53;7.17;;;19.30;89.50;;;;;;5049280;28;20464;-76
2022/05/20 01:55:03;;;;;;;11.67;7.10;;;19.30;89.90;;;;;;5042807;28;20474;-76
2022/05/20 01:57:41;;;;;;;13.80;7.33;;;19.40;89.70;;;;;;5055178;28;20414;-75
2022/05/20 02:00:19;;;;;;;9.07;6.50;;;19.40;89.90;;;;;;5050541;28;20468;-77
2022/05/20 02:03:14;;;;;;;10.80;7.17;;;19.30;90.20;;;;;;5043694;28;20483;-76
2022/05/20 02:05:58;;;;;;;10.37;7.10;;;19.30;90.40;;;;;;5047401;28;20921;-76
2022/05/20 02:08:30;;;;;;;12.87;7.70;;;19.20;90.40;;;;;;5052951;28;20450;-77
2022/05/20 02:11:07;;;;;;;10.63;6.67;;;19.20;90.50;;;;;;5053789;28;20498;-77
2022/05/20 02:13:35;;;;;;;11.17;6.43;;;19.20;90.40;;;;;;5050802;28;20483;-77
2022/05/20 02:16:11;;;;;;;12.73;7.47;;;19.20;90.70;;;;;;5052136;28;20584;-79
2022/05/20 02:18:45;;;;;;;11.03;7.30;;;19.20;90.70;;;;;;5040853;28;20449;-76
2022/05/20 02:21:16;;;;;;;9.87;7.43;;;19.20;90.80;;;;;;5044604;28;20423;-76
2022/05/20 02:23:54;;;;;;;10.17;7.77;;;19.20;90.80;;;;;;5043827;28;20548;-77
2022/05/20 02:26:24;;;;;;;12.57;6.87;;;19.20;90.80;;;;;;5041594;28;20510;-77
2022/05/20 02:29:09;;;;;;;12.03;7.70;;;19.10;90.70;;;;;;5044994;28;20834;-77
2022/05/20 02:31:51;;;;;;;11.33;6.37;;;19.10;90.80;;;;;;5048329;28;20490;-77
2022/05/20 02:34:17;;;;;;;19.27;7.23;;;19.10;90.80;;;;;;5049486;28;20472;-76
2022/05/20 02:36:42;;;;;;;9.33;6.43;;;19.10;90.80;;;;;;5048376;28;20529;-75
2022/05/20 02:39:15;;;;;;;15.80;8.13;;;19.10;90.70;;;;;;5052080;28;20466;-77
2022/05/20 02:41:43;;;;;;;10.93;7.20;;;19.10;90.80;;;;;;5045196;28;20176;-77
2022/05/20 02:44:09;;;;;;;15.83;7.90;;;19.10;90.80;;;;;;5050024;28;20459;-76
2022/05/20 02:46:36;;;;;;;13.40;7.10;;;19.00;90.70;;;;;;5052131;28;20545;-77
2022/05/20 02:49:02;;;;;;;15.50;7.67;;;18.90;90.80;;;;;;5055141;28;20410;-76
2022/05/20 02:51:28;;;;;;;8.90;6.60;;;18.90;90.80;;;;;;5052451;28;20682;-76
2022/05/20 02:53:54;;;;;;;9.93;7.23;;;18.90;90.90;;;;;;5050575;28;20246;-76
2022/05/20 02:56:19;;;;;;;11.20;7.37;;;18.90;91.00;;;;;;5055462;28;20471;-76
2022/05/20 03:04:14;;;;;;;14.87;7.43;;;18.90;91.10;;;;;;5042175;28;20600;-76
2022/05/20 03:06:50;;;;;;;11.70;7.60;;;19.00;91.10;;;;;;5051323;28;20874;-75
2022/05/20 03:09:22;;;;;;;10.80;7.20;;;18.90;91.10;;;;;;5051156;28;20188;-77
2022/05/20 03:11:48;;;;;;;10.47;6.83;;;19.00;91.10;;;;;;5051704;28;20534;-76
2022/05/20 03:14:17;;;;;;;14.00;8.23;;;19.00;91.20;;;;;;5043142;28;21026;-76
2022/05/20 03:16:43;;;;;;;15.20;7.70;;;19.00;91.20;;;;;;5051682;28;20411;-75
2022/05/20 03:19:10;;;;;;;14.43;8.87;;;19.00;91.30;;;;;;5051245;28;20548;-76
2022/05/20 03:21:37;;;;;;;11.43;7.27;;;19.00;91.40;;;;;;5046081;28;20179;-76
2022/05/20 03:24:07;;;;;;;13.27;8.10;;;19.00;91.50;;;;;;5043288;28;20457;-75
2022/05/20 03:26:34;;;;;;;15.17;8.30;;;19.00;91.30;;;;;;5045848;28;20443;-76
2022/05/20 03:29:02;;;;;;;14.17;7.77;;;19.00;91.30;;;;;;5044826;28;20441;-74
2022/05/20 03:31:29;;;;;;;16.20;8.00;;;19.00;91.30;;;;;;5050071;28;20460;-78
2022/05/20 03:33:55;;;;;;;14.60;9.03;;;19.00;91.20;;;;;;5045516;28;20482;-76
2022/05/20 03:36:21;;;;;;;17.03;8.93;;;19.10;91.20;;;;;;5047857;28;20466;-77
2022/05/20 03:38:47;;;;;;;12.53;7.80;;;19.10;91.10;;;;;;5055330;28;20177;-75
2022/05/20 03:41:14;;;;;;;10.93;7.80;;;19.10;91.10;;;;;;5050022;28;20814;-76
2022/05/20 03:43:40;;;;;;;17.50;8.17;;;19.20;91.10;;;;;;5053523;28;20227;-75
2022/05/20 03:46:05;;;;;;;10.73;7.83;;;19.10;91.10;;;;;;5057721;28;20845;-76
2022/05/20 03:48:31;;;;;;;13.87;7.93;;;19.20;91.10;;;;;;5054562;28;20450;-76
2022/05/20 03:51:07;;;;;;;10.67;7.50;;;19.20;90.90;;;;;;5059766;28;21097;-75
2022/05/20 03:53:33;;;;;;;12.30;7.50;;;19.20;91.00;;;;;;5052668;28;21035;-77
2022/05/20 03:55:58;;;;;;;13.47;8.23;;;19.20;90.90;;;;;;5062505;28;20500;-75
2022/05/20 03:58:24;;;;;;;14.00;8.20;;;19.30;90.90;;;;;;5059356;28;20276;-77
2022/05/20 04:03:34;;;;;;;19.93;8.20;;;19.40;90.40;;;;;;5046335;28;20282;-76
2022/05/20 04:06:00;;;;;;;16.63;8.10;;;19.40;90.40;;;;;;5051605;28;20941;-75
2022/05/20 04:08:27;;;;;;;12.53;8.23;;;19.40;90.20;;;;;;5052754;28;20220;-76
2022/05/20 04:10:53;;;;;;;15.70;7.87;;;19.40;90.40;;;;;;5053342;28;20846;-76
2022/05/20 04:13:21;;;;;;;10.13;7.33;;;19.40;90.70;;;;;;5048778;28;20446;-76
2022/05/20 04:15:46;;;;;;;13.23;8.00;;;19.40;90.80;;;;;;5047916;28;20182;-77
2022/05/20 04:18:12;;;;;;;13.97;8.27;;;19.40;90.80;;;;;;5047199;28;20428;-75
2022/05/20 04:20:38;;;;;;;12.90;8.43;;;19.50;90.70;;;;;;5054490;28;20587;-75
2022/05/20 04:23:03;;;;;;;20.27;9.53;;;19.50;90.70;;;;;;5043579;28;20204;-76
2022/05/20 04:25:29;;;;;;;13.53;8.20;;;19.50;90.40;;;;;;5050874;28;20196;-76
2022/05/20 04:27:55;;;;;;;13.43;8.40;;;19.50;90.70;;;;;;5054715;28;20184;-77
2022/05/20 04:30:21;;;;;;;15.27;9.37;;;19.50;90.30;;;;;;5054809;28;20208;-76
2022/05/20 04:32:47;;;;;;;14.73;8.73;;;19.60;90.40;;;;;;5045544;28;20216;-76
2022/05/20 04:35:12;;;;;;;11.07;7.20;;;19.60;90.30;;;;;;5047090;28;20424;-75
2022/05/20 04:37:38;;;;;;;15.27;7.57;;;19.60;90.40;;;;;;5044476;28;20182;-76
2022/05/20 04:40:04;;;;;;;14.63;8.27;;;19.50;90.20;;;;;;5047423;28;20177;-76
2022/05/20 04:48:00;;;;;;;14.90;8.73;;;19.60;89.60;;;;;;5047455;28;21024;-74
2022/05/20 04:50:26;;;;;;;15.90;7.97;;;19.60;89.70;;;;;;5044995;28;20466;-77
2022/05/20 04:52:51;;;;;;;18.20;8.87;;;19.50;89.20;;;;;;5048236;28;20466;-76
2022/05/20 04:55:17;;;;;;;18.83;9.40;;;19.60;89.00;;;;;;5047510;28;20242;-76
2022/05/20 04:57:49;;;;;;;17.93;9.20;;;19.60;88.70;;;;;;5054323;28;20192;-77
2022/05/20 05:00:20;;;;;;;16.33;8.80;;;19.60;88.70;;;;;;5046280;28;20213;-76
2022/05/20 05:02:46;;;;;;;19.03;7.97;;;19.70;88.40;;;;;;5048342;28;20525;-75
2022/05/20 05:05:15;;;;;;;15.03;8.57;;;19.80;87.30;;;;;;5045873;28;20407;-76
2022/05/20 05:07:43;;;;;;;10.57;7.03;;;19.90;86.90;;;;;;5049729;28;20443;-76
2022/05/20 05:10:11;;;;;;;12.50;7.57;;;20.00;86.50;;;;;;5046015;28;20462;-74
2022/05/20 05:12:37;;;;;;;12.43;7.97;;;20.10;85.20;;;;;;5046734;28;20486;-76
2022/05/20 05:15:05;;;;;;;12.23;7.57;;;20.20;84.00;;;;;;5056943;28;20411;-77
2022/05/20 05:20:24;;;;;;;13.27;6.80;;;20.40;82.50;;;;;;5044877;28;21352;-76
2022/05/20 05:22:51;;;;;;;14.10;7.43;;;20.50;81.90;;;;;;5044767;28;20576;-77
2022/05/20 05:25:19;;;;;;;9.83;6.60;;;20.60;81.20;;;;;;5044218;28;20429;-75
2022/05/20 05:27:46;;;;;;;9.60;6.50;;;20.70;80.50;;;;;;5052907;28;20425;-75
2022/05/20 05:30:13;;;;;;;8.47;6.17;;;20.80;79.90;;;;;;5044943;28;20509;-76
2022/05/20 05:32:39;;;;;;;10.80;6.07;;;20.90;79.50;;;;;;5052279;28;20489;-76
2022/05/20 05:35:09;;;;;;;8.90;6.53;;;21.00;78.40;;;;;;5053736;28;20433;-76
2022/05/20 05:37:36;;;;;;;9.00;5.90;;;21.10;77.80;;;;;;5048876;28;20432;-77
2022/05/20 05:40:03;;;;;;;11.40;7.07;;;21.20;77.80;;;;;;5058367;28;20460;-76
2022/05/20 05:42:30;;;;;;;9.43;6.60;;;21.30;77.60;;;;;;5054949;28;20465;-77
2022/05/20 05:44:59;;;;;;;9.97;5.67;;;21.40;75.70;;;;;;5058739;28;20417;-76
2022/05/20 05:47:25;;;;;;;7.90;5.30;;;21.40;75.40;;;;;;5055066;28;20429;-79
2022/05/20 05:49:51;;;;;;;10.23;6.00;;;21.50;74.80;;;;;;5069897;28;20469;-78
2022/05/20 05:52:18;;;;;;;8.10;5.70;;;21.70;73.30;;;;;;5070348;28;20440;-79
2022/05/20 05:54:43;;;;;;;10.27;6.37;;;21.80;73.30;;;;;;5062851;28;20444;-79
2022/05/20 05:57:09;;;;;;;8.90;6.20;;;21.80;73.60;;;;;;5054734;28;20743;-80
2022/05/20 05:59:37;;;;;;;9.70;5.83;;;21.90;72.70;;;;;;5055501;28;20182;-80
2022/05/20 06:02:04;;;;;;;8.43;6.70;;;21.90;72.90;;;;;;5055396;28;20244;-79
2022/05/20 06:04:30;;;;;;;8.23;6.20;;;22.00;72.90;;;;;;5044565;28;20435;-80
2022/05/20 06:06:56;;;;;;;11.17;6.90;;;22.10;72.90;;;;;;5063036;28;20444;-80
2022/05/20 06:09:23;;;;;;;10.47;6.43;;;22.00;73.50;;;;;;5064353;28;20497;-78
2022/05/20 06:11:49;;;;;;;11.47;6.37;;;22.00;73.20;;;;;;5058789;28;20464;-80
2022/05/20 06:14:16;;;;;;;9.03;5.93;;;22.10;73.00;;;;;;5049925;28;20453;-80
2022/05/20 06:16:42;;;;;;;12.50;6.10;;;22.20;73.30;;;;;;5055489;28;20418;-80
2022/05/20 06:19:09;;;;;;;11.23;7.03;;;22.30;72.90;;;;;;5053288;28;20423;-76
2022/05/20 06:21:34;;;;;;;9.70;6.70;;;22.40;72.90;;;;;;5049614;28;20950;-76
2022/05/20 06:24:01;;;;;;;9.60;6.37;;;22.50;72.40;;;;;;5049673;28;20462;-77
2022/05/20 06:26:30;;;;;;;8.63;6.07;;;22.40;72.10;;;;;;5044478;28;20216;-76
2022/05/20 06:28:56;;;;;;;8.67;5.90;;;22.60;71.10;;;;;;5046258;28;20855;-78
2022/05/20 06:31:22;;;;;;;10.73;5.53;;;22.70;70.70;;;;;;5042651;28;20833;-76
2022/05/20 06:33:48;;;;;;;10.97;5.90;;;22.80;70.20;;;;;;5039920;28;20463;-76
2022/05/20 06:41:43;;;;;;;10.93;5.73;;;23.00;69.40;;;;;;5042808;28;20799;-76
2022/05/20 06:44:08;;;;;;;8.13;5.43;;;23.10;68.80;;;;;;5040620;28;20465;-76
2022/05/20 06:46:35;;;;;;;8.37;5.90;;;23.20;68.80;;;;;;5043442;28;20188;-77
2022/05/20 06:49:01;;;;;;;8.13;5.80;;;23.30;68.20;;;;;;5044912;28;20227;-77
2022/05/20 06:51:30;;;;;;;8.67;5.53;;;23.40;68.50;;;;;;5044479;28;20471;-75
2022/05/20 06:53:59;;;;;;;8.70;5.73;;;23.50;67.70;;;;;;5049219;28;20566;-75
2022/05/20 06:56:28;;;;;;;9.27;5.67;;;23.70;68.20;;;;;;5048274;28;20439;-75
2022/05/20 06:58:54;;;;;;;9.03;5.40;;;23.80;67.70;;;;;;5054551;28;20421;-76
2022/05/20 07:01:20;;;;;;;8.73;6.67;;;23.80;67.50;;;;;;5051892;28;20428;-76
2022/05/20 07:03:46;;;;;;;11.10;5.87;;;24.00;67.30;;;;;;5047515;28;21484;-75
2022/05/20 07:06:14;;;;;;;8.03;5.37;;;24.10;67.00;;;;;;5047067;28;20187;-76
2022/05/20 07:08:40;;;;;;;7.80;5.50;;;24.10;67.00;;;;;;5066089;28;20429;-77
2022/05/20 07:11:06;;;;;;;10.63;6.17;;;24.20;66.90;;;;;;5070834;28;20883;-75
2022/05/20 07:13:32;;;;;;;9.10;6.40;;;24.20;66.40;;;;;;5048691;28;20978;-76
2022/05/20 07:15:59;;;;;;;8.30;5.53;;;24.30;66.60;;;;;;5051495;28;20418;-75
2022/05/20 07:18:26;;;;;;;9.30;5.83;;;24.40;66.40;;;;;;5055198;28;20417;-76
2022/05/20 07:20:52;;;;;;;6.87;5.60;;;24.50;66.40;;;;;;5048940;28;20497;-75
2022/05/20 07:23:17;;;;;;;8.70;6.03;;;24.50;66.40;;;;;;5047987;28;20473;-76
2022/05/20 07:25:43;;;;;;;12.77;6.30;;;24.60;65.70;;;;;;5047464;28;20430;-75
2022/05/20 07:28:09;;;;;;;6.93;5.10;;;24.70;64.70;;;;;;5049753;28;20677;-76
2022/05/20 07:30:35;;;;;;;9.80;6.07;;;24.70;64.50;;;;;;5051799;28;20236;-76
2022/05/20 07:33:01;;;;;;;9.63;6.23;;;24.80;64.80;;;;;;5049269;28;20459;-75
2022/05/20 07:35:27;;;;;;;11.70;5.93;;;25.00;63.90;;;;;;5057166;28;20907;-78
2022/05/20 07:37:53;;;;;;;9.30;6.00;;;25.10;63.70;;;;;;5056239;28;20497;-76
2022/05/20 07:40:20;;;;;;;8.77;6.20;;;25.20;63.40;;;;;;5047012;28;20951;-77
2022/05/20 07:42:46;;;;;;;11.80;5.47;;;25.30;62.80;;;;;;5048043;28;20209;-75
2022/05/20 07:45:13;;;;;;;9.23;5.67;;;25.30;62.90;;;;;;5055483;28;20431;-75
2022/05/20 07:47:39;;;;;;;8.10;5.90;;;25.40;62.60;;;;;;5062396;28;20432;-75
2022/05/20 07:50:06;;;;;;;9.50;5.77;;;25.50;62.50;;;;;;5055896;28;20472;-75
2022/05/20 07:55:25;;;;;;;8.70;5.60;;;25.70;61.70;;;;;;5055713;28;20939;-77
2022/05/20 07:57:52;;;;;;;8.43;5.60;;;25.80;61.50;;;;;;5057310;28;20513;-75
2022/05/20 08:00:20;;;;;;;9.43;6.17;;;25.90;60.60;;;;;;5059796;28;20432;-76
2022/05/20 08:02:48;;;;;;;11.03;5.90;;;25.90;61.20;;;;;;5051895;28;20939;-77
2022/05/20 08:05:17;;;;;;;10.37;5.47;;;26.00;61.50;;;;;;5055558;28;20425;-75
2022/05/20 08:07:45;;;;;;;6.80;5.80;;;26.00;61.30;;;;;;5052948;28;20515;-75
2022/05/20 08:10:21;;;;;;;7.50;5.77;;;26.10;60.30;;;;;;5059211;28;20499;-76
2022/05/20 08:12:48;;;;;;;12.80;5.67;;;26.20;58.90;;;;;;5048894;28;20570;-76
2022/05/20 08:15:16;;;;;;;8.00;5.63;;;26.30;59.50;;;;;;5058964;28;20428;-77
2022/05/20 08:17:43;;;;;;;9.50;5.87;;;26.50;58.80;;;;;;5063741;28;20441;-76
2022/05/20 08:20:16;;;;;;;10.40;6.00;;;26.50;58.40;;;;;;5067165;28;20461;-77
2022/05/20 08:22:42;;;;;;;8.30;6.23;;;26.50;58.20;;;;;;5049791;28;20474;-77
2022/05/20 08:25:07;;;;;;;8.67;5.60;;;26.60;58.40;;;;;;5054761;28;20428;-76
2022/05/20 08:27:34;;;;;;;7.97;6.00;;;26.70;58.20;;;;;;5051699;28;20969;-77
2022/05/20 08:30:13;;;;;;;9.00;5.77;;;26.70;57.70;;;;;;5053400;28;20207;-77
2022/05/20 08:32:39;;;;;;;9.57;6.20;;;26.80;56.80;;;;;;5045616;28;20469;-76
2022/05/20 08:35:05;;;;;;;10.47;5.63;;;26.80;57.00;;;;;;5049243;28;20444;-77
2022/05/20 08:37:33;;;;;;;10.80;5.57;;;26.80;56.90;;;;;;5053933;28;20533;-76
2022/05/20 08:40:00;;;;;;;10.13;6.17;;;26.90;57.20;;;;;;5047053;28;20872;-78
2022/05/20 08:42:29;;;;;;;12.10;6.40;;;26.90;56.90;;;;;;5048577;28;21389;-76
2022/05/20 08:44:55;;;;;;;10.80;6.17;;;27.00;57.20;;;;;;5047111;28;20418;-76
2022/05/20 08:47:39;;;;;;;14.03;6.20;;;27.00;57.30;;;;;;5052403;28;20433;-76
2022/05/20 08:50:12;;;;;;;8.90;6.30;;;27.20;56.60;;;;;;5051485;28;20473;-77
2022/05/20 08:52:38;;;;;;;9.20;5.50;;;27.30;55.80;;;;;;5051547;28;20455;-77
2022/05/20 08:55:04;;;;;;;11.13;6.67;;;27.40;56.00;;;;;;5048856;28;20785;-76
2022/05/20 08:57:33;;;;;;;11.17;6.13;;;27.50;55.80;;;;;;5046999;28;20422;-76
2022/05/20 09:00:01;;;;;;;9.67;5.97;;;27.60;55.30;;;;;;5043726;28;20422;-77
2022/05/20 09:02:26;;;;;;;7.40;6.07;;;27.50;55.60;;;;;;5045266;28;20630;-77
2022/05/20 09:04:52;;;;;;;10.53;6.60;;;27.60;55.20;;;;;;5055252;28;20457;-77
2022/05/20 09:07:20;;;;;;;11.40;5.73;;;27.60;55.00;;;;;;5053063;28;20242;-77
2022/05/20 09:09:56;;;;;;;8.33;6.03;;;27.70;54.50;;;;;;5047383;28;20192;-75
2022/05/20 09:12:39;;;;;;;11.50;6.07;;;27.70;53.80;;;;;;5079178;28;20534;-76
2022/05/20 09:18:28;;;;;;;11.33;6.20;;;28.00;51.80;;;;;;5051746;28;20939;-77
2022/05/20 09:20:54;;;;;;;7.73;5.20;;;27.90;50.30;;;;;;5048164;28;20444;-77
2022/05/20 09:23:22;;;;;;;9.37;5.80;;;28.00;50.90;;;;;;5050609;28;20451;-76
2022/05/20 09:25:59;;;;;;;8.20;5.90;;;28.00;51.30;;;;;;5052042;28;20415;-77
2022/05/20 09:28:39;;;;;;;9.37;5.73;;;28.10;51.30;;;;;;5054076;28;20457;-76
2022/05/20 09:31:30;;;;;;;11.03;5.93;;;28.30;51.30;;;;;;5056644;28;20458;-75
2022/05/20 09:34:35;;;;;;;7.77;5.70;;;28.40;50.60;;;;;;5064446;28;20466;-76
2022/05/20 09:37:14;;;;;;;9.17;6.53;;;28.50;49.50;;;;;;5056535;28;20431;-76
2022/05/20 09:39:42;;;;;;;8.87;6.10;;;28.50;50.30;;;;;;5055795;28;20484;-77
2022/05/20 09:42:18;;;;;;;10.10;6.20;;;28.50;50.60;;;;;;5056097;28;20477;-77
2022/05/20 09:44:49;;;;;;;10.97;6.03;;;28.50;50.10;;;;;;5048912;28;20407;-76
2022/05/20 09:47:50;;;;;;;12.40;6.10;;;28.50;50.30;;;;;;5054089;28;20447;-77
2022/05/20 09:50:34;;;;;;;10.10;5.97;;;28.50;50.50;;;;;;5052806;28;20465;-77
2022/05/20 09:53:02;;;;;;;13.87;5.70;;;28.60;49.90;;;;;;5048061;28;20468;-76
2022/05/20 09:55:31;;;;;;;12.87;6.97;;;28.80;49.30;;;;;;5048747;28;20498;-77
2022/05/20 09:58:15;;;;;;;8.43;5.80;;;29.00;48.60;;;;;;5054161;28;20427;-76
2022/05/20 10:01:01;;;;;;;13.83;6.80;;;29.10;48.20;;;;;;5048155;28;20423;-78
2022/05/20 10:03:47;;;;;;;12.43;5.90;;;29.40;47.80;;;;;;5051325;28;20466;-76
2022/05/20 10:06:21;;;;;;;9.13;5.90;;;29.60;47.40;;;;;;5050887;28;20939;-77
2022/05/20 10:09:22;;;;;;;11.33;6.40;;;29.70;46.90;;;;;;5046007;28;20427;-77
2022/05/20 10:11:57;;;;;;;8.93;5.70;;;29.70;46.30;;;;;;5049374;28;20489;-78
2022/05/20 10:14:46;;;;;;;13.53;6.77;;;29.90;47.00;;;;;;5046866;28;20465;-78
2022/05/20 10:17:44;;;;;;;11.20;6.60;;;30.20;46.70;;;;;;5048267;28;20454;-76
2022/05/20 10:20:47;;;;;;;9.20;6.73;;;30.30;46.30;;;;;;5051460;28;20439;-77
2022/05/20 10:23:18;;;;;;;9.60;6.30;;;30.40;46.20;;;;;;5046043;28;20467;-76
2022/05/20 10:26:03;;;;;;;8.57;5.97;;;30.40;46.20;;;;;;5042328;28;20431;-76
2022/05/20 10:34:40;;;;;;;9.00;5.80;;;30.50;45.10;;;;;;5058098;28;20429;-77
2022/05/20 10:37:24;;;;;;;9.40;5.80;;;30.80;44.20;;;;;;5059348;28;20412;-77
2022/05/20 10:39:55;;;;;;;9.60;5.83;;;31.10;43.40;;;;;;5048138;28;20415;-77
2022/05/20 10:42:39;;;;;;;11.97;5.70;;;31.30;40.70;;;;;;5045512;28;20836;-76
2022/05/20 10:48:35;;;;;;;9.73;6.03;;;31.30;39.50;;;;;;5042303;28;21043;-77
2022/05/20 10:51:04;;;;;;;17.80;5.70;;;31.30;38.60;;;;;;5045558;28;20478;-77
2022/05/20 10:53:50;;;;;;;9.70;5.30;;;31.30;38.40;;;;;;5044622;28;20620;-79
2022/05/20 10:56:47;;;;;;;7.13;4.90;;;31.10;38.30;;;;;;5045727;28;20439;-77
2022/05/20 10:59:34;;;;;;;7.77;5.50;;;31.00;38.80;;;;;;5050763;28;20435;-77
2022/05/20 11:02:21;;;;;;;8.83;5.60;;;31.20;39.10;;;;;;5041695;28;20815;-75
2022/05/20 11:05:19;;;;;;;7.97;6.10;;;31.30;38.30;;;;;;5047680;28;20423;-77
2022/05/20 11:08:37;;;;;;;10.20;5.37;;;31.20;38.60;;;;;;5045011;28;20979;-77
2022/05/20 11:11:22;;;;;;;8.83;5.03;;;31.30;38.40;;;;;;5019344;28;20474;-78
2022/05/20 11:14:13;;;;;;;10.83;5.70;;;31.60;38.00;;;;;;5046804;28;20454;-78
2022/05/20 11:17:09;;;;;;;8.40;5.50;;;31.70;38.70;;;;;;5047338;28;20925;-77
2022/05/20 11:19:52;;;;;;;8.77;5.43;;;32.00;38.20;;;;;;5049216;28;20423;-79
2022/05/20 11:22:27;;;;;;;8.83;5.07;;;32.10;37.10;;;;;;5039874;28;20985;-77
2022/05/20 11:25:02;;;;;;;9.43;4.90;;;32.00;37.50;;;;;;5042272;28;20446;-78
2022/05/20 11:27:45;;;;;;;10.60;5.33;;;31.90;37.60;;;;;;5050180;28;20434;-77
2022/05/20 11:30:40;;;;;;;8.30;5.20;;;32.00;38.00;;;;;;5049379;28;20471;-78
2022/05/20 11:33:32;;;;;;;11.30;5.30;;;32.30;37.00;;;;;;5039990;28;20622;-76
2022/05/20 11:35:59;;;;;;;10.40;5.20;;;32.50;36.70;;;;;;5039651;28;20494;-76
2022/05/20 11:38:25;;;;;;;10.00;5.60;;;32.20;36.20;;;;;;5047464;28;20582;-77
2022/05/20 11:41:17;;;;;;;8.73;5.87;;;32.10;37.80;;;;;;5054789;28;20516;-77
2022/05/20 11:44:00;;;;;;;8.70;5.30;;;32.40;37.50;;;;;;5051131;28;20219;-77
2022/05/20 11:46:45;;;;;;;7.13;5.53;;;32.40;37.20;;;;;;5048695;28;20481;-76
2022/05/20 11:49:45;;;;;;;7.57;5.50;;;32.60;37.00;;;;;;5050842;28;20419;-77
2022/05/20 11:52:17;;;;;;;8.50;5.60;;;32.70;36.30;;;;;;5049472;28;20445;-76
2022/05/20 11:54:49;;;;;;;9.30;5.57;;;32.70;36.80;;;;;;5046442;28;20497;-77
2022/05/20 11:57:20;;;;;;;8.43;5.77;;;33.10;36.60;;;;;;5049768;28;21008;-77
2022/05/20 12:00:14;;;;;;;13.33;5.50;;;33.20;36.20;;;;;;5047345;28;20430;-77
2022/05/20 12:02:58;;;;;;;7.80;5.30;;;32.90;36.70;;;;;;5063171;28;20482;-76
2022/05/20 12:05:28;;;;;;;8.73;5.90;;;33.00;36.60;;;;;;5067049;28;20889;-77
2022/05/20 12:07:55;;;;;;;10.17;5.20;;;33.00;36.70;;;;;;5063354;28;20438;-77
2022/05/20 12:10:39;;;;;;;8.47;5.40;;;32.90;36.60;;;;;;5069966;28;20466;-78
2022/05/20 12:13:17;;;;;;;11.57;5.57;;;33.00;36.30;;;;;;5055238;28;20509;-76
2022/05/20 12:16:08;;;;;;;11.83;5.30;;;33.10;36.20;;;;;;5055749;28;20419;-77
2022/05/20 12:24:39;;;;;;;7.90;4.90;;;33.10;35.70;;;;;;5053448;28;20478;-77
2022/05/20 12:27:25;;;;;;;7.40;5.13;;;32.80;35.90;;;;;;5054831;28;20427;-76
2022/05/20 12:30:00;;;;;;;11.73;5.80;;;32.70;36.20;;;;;;5041615;28;20428;-77
2022/05/20 12:32:39;;;;;;;10.13;4.80;;;32.70;36.30;;;;;;5043696;28;20444;-77
2022/05/20 12:35:11;;;;;;;10.93;5.30;;;32.90;36.20;;;;;;5044915;28;20431;-78
2022/05/20 12:37:43;;;;;;;15.20;5.80;;;33.30;35.90;;;;;;5046694;28;20415;-77
2022/05/20 12:40:35;;;;;;;8.97;5.27;;;33.70;34.70;;;;;;5048389;28;20946;-76
2022/05/20 12:43:04;;;;;;;11.33;4.67;;;33.60;34.00;;;;;;5028636;28;20478;-77
2022/05/20 12:45:51;;;;;;;10.77;5.37;;;33.60;34.50;;;;;;5032362;28;20431;-76
2022/05/20 12:48:21;;;;;;;6.63;4.80;;;33.80;34.40;;;;;;5032577;28;20535;-77
2022/05/20 12:51:00;;;;;;;10.50;6.17;;;34.00;33.70;;;;;;5033617;28;20476;-78
2022/05/20 12:53:32;;;;;;;11.03;4.83;;;33.70;31.60;;;;;;5029028;28;20487;-77
2022/05/20 12:55:58;;;;;;;7.20;4.93;;;33.60;32.30;;;;;;5031241;28;20428;-76
2022/05/20 12:58:27;;;;;;;10.20;4.93;;;33.60;31.90;;;;;;5030257;28;21000;-77
2022/05/20 13:00:56;;;;;;;7.13;4.50;;;33.60;31.90;;;;;;5028432;28;20432;-79
2022/05/20 13:03:38;;;;;;;14.63;4.50;;;33.80;31.70;;;;;;5011059;28;20465;-77
2022/05/20 13:06:26;;;;;;;7.87;4.50;;;34.10;31.50;;;;;;5031482;28;20980;-78
2022/05/20 13:08:58;;;;;;;6.50;4.40;;;34.30;31.10;;;;;;5032846;28;20412;-76
2022/05/20 13:11:25;;;;;;;11.63;5.90;;;34.20;31.20;;;;;;5032239;28;20566;-77
2022/05/20 13:13:54;;;;;;;8.00;4.80;;;34.20;31.10;;;;;;5025640;28;21296;-78
2022/05/20 13:16:21;;;;;;;9.10;4.97;;;34.30;30.40;;;;;;5032435;28;20456;-76
2022/05/20 13:18:58;;;;;;;9.83;4.73;;;34.10;30.10;;;;;;5035446;28;20493;-78
2022/05/20 13:21:25;;;;;;;9.43;4.60;;;34.20;30.40;;;;;;5051461;28;20556;-77
2022/05/20 13:23:55;;;;;;;7.40;4.30;;;34.40;30.30;;;;;;5047142;28;20551;-77
2022/05/20 13:26:41;;;;;;;10.30;4.60;;;34.30;29.60;;;;;;5046851;28;20432;-76
2022/05/20 13:29:14;;;;;;;9.70;4.73;;;34.00;29.90;;;;;;5051079;28;20446;-77
2022/05/20 13:31:40;;;;;;;9.97;5.73;;;34.00;30.40;;;;;;5049046;28;20474;-77
2022/05/20 13:34:06;;;;;;;9.10;4.47;;;34.30;29.70;;;;;;5045388;28;20452;-77
2022/05/20 13:36:41;;;;;;;6.43;4.37;;;34.40;29.70;;;;;;5058220;28;20659;-77
2022/05/20 13:39:07;;;;;;;15.57;4.47;;;34.00;29.70;;;;;;5051678;28;20452;-75
2022/05/20 13:41:34;;;;;;;13.27;4.50;;;34.10;30.30;;;;;;5055186;28;20434;-75
2022/05/20 13:44:02;;;;;;;9.00;4.20;;;34.20;29.90;;;;;;5046929;28;20279;-76
2022/05/20 13:49:20;;;;;;;11.83;4.87;;;34.00;29.90;;;;;;5053019;28;20485;-76
2022/05/20 13:51:48;;;;;;;12.63;4.80;;;34.40;29.90;;;;;;5053043;28;20475;-76